sensor_id;sensor_type;location;lat;lon;timestamp;pressure;altitude;pressure_sealevel;temperature
78905;BMP280;68291;49.602;8.722;2023-04-24T00:01:50;98454.09;;;15.01
78905;BMP280;68291;49.602;8.722;2023-04-24T00:04:23;98450.44;;;15.04
78905;BMP280;68291;49.602;8.722;2023-04-24T00:07:09;98445.81;;;15.07
78905;BMP280;68291;49.602;8.722;2023-04-24T00:09:39;98443.00;;;15.10
78905;BMP280;68291;49.602;8.722;2023-04-24T00:12:11;98441.84;;;15.14
78905;BMP280;68291;49.602;8.722;2023-04-24T00:15:01;98426.16;;;15.15
78905;BMP280;68291;49.602;8.722;2023-04-24T00:17:50;98435.09;;;15.11
78905;BMP280;68291;49.602;8.722;2023-04-24T00:20:46;98429.56;;;15.05
78905;BMP280;68291;49.602;8.722;2023-04-24T00:23:29;98423.66;;;15.03
78905;BMP280;68291;49.602;8.722;2023-04-24T00:26:08;98425.00;;;14.98
78905;BMP280;68291;49.602;8.722;2023-04-24T00:28:40;98435.13;;;15.01
78905;BMP280;68291;49.602;8.722;2023-04-24T00:31:45;98438.78;;;14.98
78905;BMP280;68291;49.602;8.722;2023-04-24T00:34:23;98427.47;;;14.99
78905;BMP280;68291;49.602;8.722;2023-04-24T00:37:08;98418.41;;;14.94
78905;BMP280;68291;49.602;8.722;2023-04-24T00:39:41;98416.84;;;15.02
78905;BMP280;68291;49.602;8.722;2023-04-24T00:42:36;98423.09;;;15.00
78905;BMP280;68291;49.602;8.722;2023-04-24T00:45:13;98430.06;;;14.99
78905;BMP280;68291;49.602;8.722;2023-04-24T00:47:54;98423.94;;;15.00
78905;BMP280;68291;49.602;8.722;2023-04-24T00:50:36;98418.75;;;15.00
78905;BMP280;68291;49.602;8.722;2023-04-24T00:53:26;98429.69;;;15.04
78905;BMP280;68291;49.602;8.722;2023-04-24T00:55:58;98426.03;;;15.06
78905;BMP280;68291;49.602;8.722;2023-04-24T00:58:40;98412.50;;;15.03
78905;BMP280;68291;49.602;8.722;2023-04-24T01:01:22;98422.03;;;15.02
78905;BMP280;68291;49.602;8.722;2023-04-24T01:04:11;98423.94;;;15.00
78905;BMP280;68291;49.602;8.722;2023-04-24T01:07:04;98435.13;;;15.01
78905;BMP280;68291;49.602;8.722;2023-04-24T01:09:54;98429.81;;;15.02
78905;BMP280;68291;49.602;8.722;2023-04-24T01:12:25;98432.16;;;15.05
78905;BMP280;68291;49.602;8.722;2023-04-24T01:15:10;98428.84;;;15.03
78905;BMP280;68291;49.602;8.722;2023-04-24T01:17:47;98423.94;;;15.00
78905;BMP280;68291;49.602;8.722;2023-04-24T01:20:49;98429.94;;;15.01
78905;BMP280;68291;49.602;8.722;2023-04-24T01:23:44;98426.97;;;15.05
78905;BMP280;68291;49.602;8.722;2023-04-24T01:26:35;98420.16;;;15.04
78905;BMP280;68291;49.602;8.722;2023-04-24T01:29:10;98403.06;;;15.02
78905;BMP280;68291;49.602;8.722;2023-04-24T01:31:47;98408.81;;;15.05
78905;BMP280;68291;49.602;8.722;2023-04-24T01:34:33;98404.84;;;15.01
78905;BMP280;68291;49.602;8.722;2023-04-24T01:37:22;98402.25;;;15.01
78905;BMP280;68291;49.602;8.722;2023-04-24T01:40:34;98414.16;;;15.04
78905;BMP280;68291;49.602;8.722;2023-04-24T01:43:19;98406.84;;;14.98
78905;BMP280;68291;49.602;8.722;2023-04-24T01:45:53;98413.06;;;15.06
78905;BMP280;68291;49.602;8.722;2023-04-24T01:48:28;98407.19;;;15.04
78905;BMP280;68291;49.602;8.722;2023-04-24T01:51:04;98416.03;;;15.02
78905;BMP280;68291;49.602;8.722;2023-04-24T01:53:50;98405.53;;;15.03
78905;BMP280;68291;49.602;8.722;2023-04-24T01:56:43;98413.56;;;15.00
78905;BMP280;68291;49.602;8.722;2023-04-24T01:59:25;98408.81;;;15.05
78905;BMP280;68291;49.602;8.722;2023-04-24T02:02:03;98414.84;;;15.06
78905;BMP280;68291;49.602;8.722;2023-04-24T02:04:59;98408.13;;;15.03
78905;BMP280;68291;49.602;8.722;2023-04-24T02:07:38;98402.94;;;15.03
78905;BMP280;68291;49.602;8.722;2023-04-24T02:10:21;98406.13;;;15.06
78905;BMP280;68291;49.602;8.722;2023-04-24T02:12:59;98399.03;;;15.08
78905;BMP280;68291;49.602;8.722;2023-04-24T02:15:41;98399.16;;;15.07
78905;BMP280;68291;49.602;8.722;2023-04-24T02:18:26;98394.22;;;15.04
78905;BMP280;68291;49.602;8.722;2023-04-24T02:20:57;98391.03;;;15.01
78905;BMP280;68291;49.602;8.722;2023-04-24T02:23:28;98390.81;;;15.04
78905;BMP280;68291;49.602;8.722;2023-04-24T02:26:16;98391.63;;;15.04
78905;BMP280;68291;49.602;8.722;2023-04-24T02:29:40;98392.56;;;15.03
78905;BMP280;68291;49.602;8.722;2023-04-24T02:32:35;98394.22;;;15.04
78905;BMP280;68291;49.602;8.722;2023-04-24T02:35:14;98388.44;;;15.01
78905;BMP280;68291;49.602;8.722;2023-04-24T02:37:58;98396.78;;;14.84
78905;BMP280;68291;49.602;8.722;2023-04-24T02:40:45;98395.25;;;14.71
78905;BMP280;68291;49.602;8.722;2023-04-24T02:43:19;98396.44;;;14.67
78905;BMP280;68291;49.602;8.722;2023-04-24T02:45:55;98419.31;;;14.62
78905;BMP280;68291;49.602;8.722;2023-04-24T02:48:26;98416.84;;;14.49
78905;BMP280;68291;49.602;8.722;2023-04-24T02:51:18;98414.28;;;14.28
78905;BMP280;68291;49.602;8.722;2023-04-24T02:53:57;98423.09;;;14.03
78905;BMP280;68291;49.602;8.722;2023-04-24T02:56:43;98436.22;;;13.79
78905;BMP280;68291;49.602;8.722;2023-04-24T02:59:14;98428.78;;;13.64
78905;BMP280;68291;49.602;8.722;2023-04-24T03:02:14;98448.94;;;13.48
78905;BMP280;68291;49.602;8.722;2023-04-24T03:04:47;98458.06;;;13.41
78905;BMP280;68291;49.602;8.722;2023-04-24T03:07:32;98457.94;;;13.32
78905;BMP280;68291;49.602;8.722;2023-04-24T03:10:12;98458.13;;;13.29
78905;BMP280;68291;49.602;8.722;2023-04-24T03:12:46;98466.47;;;13.21
78905;BMP280;68291;49.602;8.722;2023-04-24T03:15:33;98469.00;;;13.10
78905;BMP280;68291;49.602;8.722;2023-04-24T03:18:17;98466.03;;;13.04
78905;BMP280;68291;49.602;8.722;2023-04-24T03:20:53;98469.03;;;12.98
78905;BMP280;68291;49.602;8.722;2023-04-24T03:23:26;98483.91;;;12.95
78905;BMP280;68291;49.602;8.722;2023-04-24T03:25:56;98481.66;;;12.90
78905;BMP280;68291;49.602;8.722;2023-04-24T03:28:42;98483.31;;;12.91
78905;BMP280;68291;49.602;8.722;2023-04-24T03:31:15;98489.94;;;12.95
78905;BMP280;68291;49.602;8.722;2023-04-24T03:34:16;98484.97;;;12.92
78905;BMP280;68291;49.602;8.722;2023-04-24T03:36:51;98483.31;;;12.91
78905;BMP280;68291;49.602;8.722;2023-04-24T03:39:26;98476.28;;;12.93
78905;BMP280;68291;49.602;8.722;2023-04-24T03:42:11;98480.41;;;12.96
78905;BMP280;68291;49.602;8.722;2023-04-24T03:44:54;98483.59;;;12.99
78905;BMP280;68291;49.602;8.722;2023-04-24T03:47:54;98484.09;;;13.04
78905;BMP280;68291;49.602;8.722;2023-04-24T03:50:45;98493.41;;;13.06
78905;BMP280;68291;49.602;8.722;2023-04-24T03:53:40;98485.66;;;13.06
78905;BMP280;68291;49.602;8.722;2023-04-24T03:56:13;98489.28;;;13.04
78905;BMP280;68291;49.602;8.722;2023-04-24T03:59:14;98492.78;;;13.03
78905;BMP280;68291;49.602;8.722;2023-04-24T04:01:49;98498.88;;;13.02
78905;BMP280;68291;49.602;8.722;2023-04-24T04:04:39;98494.38;;;12.93
78905;BMP280;68291;49.602;8.722;2023-04-24T04:07:18;98507.00;;;12.85
78905;BMP280;68291;49.602;8.722;2023-04-24T04:09:52;98505.25;;;12.73
78905;BMP280;68291;49.602;8.722;2023-04-24T04:12:32;98516.81;;;12.68
78905;BMP280;68291;49.602;8.722;2023-04-24T04:15:10;98524.66;;;12.66
78905;BMP280;68291;49.602;8.722;2023-04-24T04:17:50;98525.81;;;12.63
78905;BMP280;68291;49.602;8.722;2023-04-24T04:20:22;98524.47;;;12.57
78905;BMP280;68291;49.602;8.722;2023-04-24T04:23:17;98532.63;;;12.51
78905;BMP280;68291;49.602;8.722;2023-04-24T04:26:20;98533.78;;;12.47
78905;BMP280;68291;49.602;8.722;2023-04-24T04:29:21;98538.97;;;12.35
78905;BMP280;68291;49.602;8.722;2023-04-24T04:32:08;98543.09;;;12.25
78905;BMP280;68291;49.602;8.722;2023-04-24T04:34:46;98551.53;;;12.15
78905;BMP280;68291;49.602;8.722;2023-04-24T04:37:21;98547.81;;;12.06
78905;BMP280;68291;49.602;8.722;2023-04-24T04:40:13;98555.84;;;12.02
78905;BMP280;68291;49.602;8.722;2023-04-24T04:42:52;98557.81;;;11.98
78905;BMP280;68291;49.602;8.722;2023-04-24T04:45:24;98565.88;;;11.94
78905;BMP280;68291;49.602;8.722;2023-04-24T04:48:34;98556.97;;;11.86
78905;BMP280;68291;49.602;8.722;2023-04-24T04:51:08;98560.66;;;11.82
78905;BMP280;68291;49.602;8.722;2023-04-24T04:53:49;98564.38;;;11.78
78905;BMP280;68291;49.602;8.722;2023-04-24T04:56:57;98562.00;;;11.75
78905;BMP280;68291;49.602;8.722;2023-04-24T04:59:45;98562.91;;;11.74
78905;BMP280;68291;49.602;8.722;2023-04-24T05:02:27;98575.72;;;11.75
78905;BMP280;68291;49.602;8.722;2023-04-24T05:05:13;98587.06;;;11.73
78905;BMP280;68291;49.602;8.722;2023-04-24T05:07:53;98583.75;;;11.71
78905;BMP280;68291;49.602;8.722;2023-04-24T05:10:34;98586.41;;;11.69
78905;BMP280;68291;49.602;8.722;2023-04-24T05:13:21;98590.03;;;11.67
78905;BMP280;68291;49.602;8.722;2023-04-24T05:16:13;98598.66;;;11.66
78905;BMP280;68291;49.602;8.722;2023-04-24T05:19:10;98605.50;;;11.67
78905;BMP280;68291;49.602;8.722;2023-04-24T05:21:48;98605.28;;;11.70
78905;BMP280;68291;49.602;8.722;2023-04-24T05:24:24;98610.28;;;11.73
78905;BMP280;68291;49.602;8.722;2023-04-24T05:27:37;98602.84;;;11.81
78905;BMP280;68291;49.602;8.722;2023-04-24T05:30:21;98617.84;;;11.88
78905;BMP280;68291;49.602;8.722;2023-04-24T05:32:59;98627.78;;;11.94
78905;BMP280;68291;49.602;8.722;2023-04-24T05:35:47;98615.69;;;11.95
78905;BMP280;68291;49.602;8.722;2023-04-24T05:38:44;98618.72;;;12.01
78905;BMP280;68291;49.602;8.722;2023-04-24T05:41:17;98617.16;;;12.11
78905;BMP280;68291;49.602;8.722;2023-04-24T05:43:49;98616.47;;;12.21
78905;BMP280;68291;49.602;8.722;2023-04-24T05:46:45;98623.59;;;12.30
78905;BMP280;68291;49.602;8.722;2023-04-24T05:49:43;98621.56;;;12.35
78905;BMP280;68291;49.602;8.722;2023-04-24T05:52:14;98631.47;;;12.41
78905;BMP280;68291;49.602;8.722;2023-04-24T05:54:49;98625.16;;;12.45
78905;BMP280;68291;49.602;8.722;2023-04-24T05:57:36;98618.88;;;12.49
78905;BMP280;68291;49.602;8.722;2023-04-24T06:00:16;98624.38;;;12.57
78905;BMP280;68291;49.602;8.722;2023-04-24T06:03:16;98630.25;;;12.59
78905;BMP280;68291;49.602;8.722;2023-04-24T06:05:58;98634.38;;;12.61
78905;BMP280;68291;49.602;8.722;2023-04-24T06:08:39;98633.97;;;12.67
78905;BMP280;68291;49.602;8.722;2023-04-24T06:11:20;98631.28;;;12.68
78905;BMP280;68291;49.602;8.722;2023-04-24T06:13:51;98636.13;;;12.73
78905;BMP280;68291;49.602;8.722;2023-04-24T06:16:47;98633.25;;;12.77
78905;BMP280;68291;49.602;8.722;2023-04-24T06:19:56;98642.28;;;12.84
78905;BMP280;68291;49.602;8.722;2023-04-24T06:22:28;98639.56;;;12.86
78905;BMP280;68291;49.602;8.722;2023-04-24T06:25:15;98642.06;;;12.87
78905;BMP280;68291;49.602;8.722;2023-04-24T06:27:46;98643.09;;;12.97
78905;BMP280;68291;49.602;8.722;2023-04-24T06:30:19;98641.19;;;12.99
78905;BMP280;68291;49.602;8.722;2023-04-24T06:32:53;98644.09;;;13.07
78905;BMP280;68291;49.602;8.722;2023-04-24T06:35:52;98645.84;;;13.06
78905;BMP280;68291;49.602;8.722;2023-04-24T06:38:41;98658.06;;;13.04
78905;BMP280;68291;49.602;8.722;2023-04-24T06:41:18;98655.38;;;13.06
78905;BMP280;68291;49.602;8.722;2023-04-24T06:44:08;98659.81;;;13.04
78905;BMP280;68291;49.602;8.722;2023-04-24T06:46:59;98644.94;;;12.95
78905;BMP280;68291;49.602;8.722;2023-04-24T06:49:29;98661.19;;;12.97
78905;BMP280;68291;49.602;8.722;2023-04-24T06:52:27;98662.31;;;12.93
78905;BMP280;68291;49.602;8.722;2023-04-24T06:55:22;98661.06;;;12.86
78905;BMP280;68291;49.602;8.722;2023-04-24T06:57:58;98665.31;;;12.87
78905;BMP280;68291;49.602;8.722;2023-04-24T07:00:42;98668.72;;;12.88
78905;BMP280;68291;49.602;8.722;2023-04-24T07:03:27;98676.56;;;12.86
78905;BMP280;68291;49.602;8.722;2023-04-24T07:06:05;98676.38;;;12.89
78905;BMP280;68291;49.602;8.722;2023-04-24T07:09:06;98680.72;;;12.89
78905;BMP280;68291;49.602;8.722;2023-04-24T07:11:53;98675.31;;;12.92
78905;BMP280;68291;49.602;8.722;2023-04-24T07:14:28;98677.81;;;12.93
78905;BMP280;68291;49.602;8.722;2023-04-24T07:17:08;98670.16;;;12.92
78905;BMP280;68291;49.602;8.722;2023-04-24T07:19:44;98687.31;;;12.93
78905;BMP280;68291;49.602;8.722;2023-04-24T07:22:18;98684.00;;;13.03
78905;BMP280;68291;49.602;8.722;2023-04-24T07:24:54;98691.84;;;13.14
78905;BMP280;68291;49.602;8.722;2023-04-24T07:27:41;98686.47;;;13.17
78905;BMP280;68291;49.602;8.722;2023-04-24T07:30:16;98688.94;;;13.18
78905;BMP280;68291;49.602;8.722;2023-04-24T07:32:47;98694.75;;;13.22
78905;BMP280;68291;49.602;8.722;2023-04-24T07:35:18;98693.59;;;13.13
78905;BMP280;68291;49.602;8.722;2023-04-24T07:37:55;98703.75;;;13.04
78905;BMP280;68291;49.602;8.722;2023-04-24T07:40:47;98707.34;;;13.14
78905;BMP280;68291;49.602;8.722;2023-04-24T07:43:44;98699.91;;;13.22
78905;BMP280;68291;49.602;8.722;2023-04-24T07:46:25;98702.81;;;13.30
78905;BMP280;68291;49.602;8.722;2023-04-24T07:49:02;98697.19;;;13.35
78905;BMP280;68291;49.602;8.722;2023-04-24T07:51:42;98691.81;;;13.38
78905;BMP280;68291;49.602;8.722;2023-04-24T07:54:20;98685.94;;;13.36
78905;BMP280;68291;49.602;8.722;2023-04-24T07:57:10;98696.06;;;13.39
78905;BMP280;68291;49.602;8.722;2023-04-24T08:00:10;98687.66;;;13.48
78905;BMP280;68291;49.602;8.722;2023-04-24T08:03:15;98692.41;;;13.54
78905;BMP280;68291;49.602;8.722;2023-04-24T08:05:48;98702.75;;;13.54
78905;BMP280;68291;49.602;8.722;2023-04-24T08:08:31;98694.50;;;13.49
78905;BMP280;68291;49.602;8.722;2023-04-24T08:11:02;98691.16;;;13.60
78905;BMP280;68291;49.602;8.722;2023-04-24T08:13:56;98695.25;;;13.74
78905;BMP280;68291;49.602;8.722;2023-04-24T08:16:28;98707.94;;;13.90
78905;BMP280;68291;49.602;8.722;2023-04-24T08:19:19;98701.38;;;13.97
78905;BMP280;68291;49.602;8.722;2023-04-24T08:22:01;98720.03;;;14.02
78905;BMP280;68291;49.602;8.722;2023-04-24T08:24:52;98699.78;;;13.83
78905;BMP280;68291;49.602;8.722;2023-04-24T08:27:37;98743.94;;;13.93
78905;BMP280;68291;49.602;8.722;2023-04-24T08:30:38;98735.94;;;13.96
78905;BMP280;68291;49.602;8.722;2023-04-24T08:33:32;98729.75;;;13.98
78905;BMP280;68291;49.602;8.722;2023-04-24T08:36:07;98732.25;;;14.00
78905;BMP280;68291;49.602;8.722;2023-04-24T08:38:50;98731.91;;;14.04
78905;BMP280;68291;49.602;8.722;2023-04-24T08:41:28;98736.16;;;14.05
78905;BMP280;68291;49.602;8.722;2023-04-24T08:44:02;98741.75;;;14.11
78905;BMP280;68291;49.602;8.722;2023-04-24T08:46:51;98748.34;;;14.15
78905;BMP280;68291;49.602;8.722;2023-04-24T08:49:28;98734.03;;;14.22
78905;BMP280;68291;49.602;8.722;2023-04-24T08:52:13;98739.97;;;14.35
78905;BMP280;68291;49.602;8.722;2023-04-24T08:54:53;98761.22;;;14.51
78905;BMP280;68291;49.602;8.722;2023-04-24T08:57:36;98755.00;;;14.53
78905;BMP280;68291;49.602;8.722;2023-04-24T09:00:21;98750.03;;;14.50
78905;BMP280;68291;49.602;8.722;2023-04-24T09:03:27;98747.22;;;14.30
78905;BMP280;68291;49.602;8.722;2023-04-24T09:06:13;98756.38;;;14.23
78905;BMP280;68291;49.602;8.722;2023-04-24T09:08:48;98765.31;;;14.19
78905;BMP280;68291;49.602;8.722;2023-04-24T09:11:32;98757.03;;;14.14
78905;BMP280;68291;49.602;8.722;2023-04-24T09:14:09;98767.50;;;14.13
78905;BMP280;68291;49.602;8.722;2023-04-24T09:17:03;98782.84;;;14.16
78905;BMP280;68291;49.602;8.722;2023-04-24T09:19:59;98773.63;;;14.12
78905;BMP280;68291;49.602;8.722;2023-04-24T09:22:53;98773.31;;;14.04
78905;BMP280;68291;49.602;8.722;2023-04-24T09:25:36;98775.50;;;14.10
78905;BMP280;68291;49.602;8.722;2023-04-24T09:28:10;98788.94;;;14.15
78905;BMP280;68291;49.602;8.722;2023-04-24T09:31:07;98781.16;;;14.15
78905;BMP280;68291;49.602;8.722;2023-04-24T09:33:39;98784.59;;;14.15
78905;BMP280;68291;49.602;8.722;2023-04-24T09:36:41;98783.16;;;14.11
78905;BMP280;68291;49.602;8.722;2023-04-24T09:39:34;98796.59;;;14.16
78905;BMP280;68291;49.602;8.722;2023-04-24T09:42:05;98796.16;;;14.22
78905;BMP280;68291;49.602;8.722;2023-04-24T09:44:36;98799.03;;;14.30
78905;BMP280;68291;49.602;8.722;2023-04-24T09:47:28;98811.16;;;14.30
78905;BMP280;68291;49.602;8.722;2023-04-24T09:50:24;98808.41;;;14.20
78905;BMP280;68291;49.602;8.722;2023-04-24T09:53:26;98813.81;;;14.17
78905;BMP280;68291;49.602;8.722;2023-04-24T09:56:11;98813.56;;;14.20
78905;BMP280;68291;49.602;8.722;2023-04-24T09:59:05;98812.63;;;14.21
78905;BMP280;68291;49.602;8.722;2023-04-24T10:01:52;98814.00;;;14.14
78905;BMP280;68291;49.602;8.722;2023-04-24T10:04:32;98811.72;;;14.10
78905;BMP280;68291;49.602;8.722;2023-04-24T10:07:15;98821.47;;;14.06
78905;BMP280;68291;49.602;8.722;2023-04-24T10:09:52;98819.81;;;14.05
78905;BMP280;68291;49.602;8.722;2023-04-24T10:12:39;98817.22;;;14.05
78905;BMP280;68291;49.602;8.722;2023-04-24T10:15:20;98821.69;;;14.03
78905;BMP280;68291;49.602;8.722;2023-04-24T10:18:12;98834.84;;;14.01
78905;BMP280;68291;49.602;8.722;2023-04-24T10:21:08;98853.59;;;13.92
78905;BMP280;68291;49.602;8.722;2023-04-24T10:23:57;98840.44;;;13.82
78905;BMP280;68291;49.602;8.722;2023-04-24T10:27:27;98844.78;;;13.82
78905;BMP280;68291;49.602;8.722;2023-04-24T10:30:02;98833.69;;;13.92
78905;BMP280;68291;49.602;8.722;2023-04-24T10:32:33;98845.81;;;14.04
78905;BMP280;68291;49.602;8.722;2023-04-24T10:35:20;98837.53;;;14.11
78905;BMP280;68291;49.602;8.722;2023-04-24T10:38:18;98837.50;;;14.24
78905;BMP280;68291;49.602;8.722;2023-04-24T10:41:07;98826.88;;;14.39
78905;BMP280;68291;49.602;8.722;2023-04-24T10:44:10;98835.97;;;14.68
78905;BMP280;68291;49.602;8.722;2023-04-24T10:47:05;98846.28;;;14.80
78905;BMP280;68291;49.602;8.722;2023-04-24T10:49:52;98848.31;;;14.87
78905;BMP280;68291;49.602;8.722;2023-04-24T10:52:45;98851.00;;;14.86
78905;BMP280;68291;49.602;8.722;2023-04-24T10:55:52;98870.28;;;14.71
78905;BMP280;68291;49.602;8.722;2023-04-24T10:58:42;98854.88;;;14.57
78905;BMP280;68291;49.602;8.722;2023-04-24T11:01:30;98851.16;;;14.49
78905;BMP280;68291;49.602;8.722;2023-04-24T11:04:31;98862.59;;;14.46
78905;BMP280;68291;49.602;8.722;2023-04-24T11:07:13;98864.53;;;14.43
78905;BMP280;68291;49.602;8.722;2023-04-24T11:09:59;98862.41;;;14.37
78905;BMP280;68291;49.602;8.722;2023-04-24T11:12:36;98860.97;;;14.33
78905;BMP280;68291;49.602;8.722;2023-04-24T11:15:14;98860.69;;;14.25
78905;BMP280;68291;49.602;8.722;2023-04-24T11:18:14;98864.22;;;14.24
78905;BMP280;68291;49.602;8.722;2023-04-24T11:21:11;98868.66;;;14.22
78905;BMP280;68291;49.602;8.722;2023-04-24T11:24:27;98870.31;;;14.23
78905;BMP280;68291;49.602;8.722;2023-04-24T11:27:07;98872.19;;;14.21
78905;BMP280;68291;49.602;8.722;2023-04-24T11:29:46;98873.63;;;14.25
78905;BMP280;68291;49.602;8.722;2023-04-24T11:32:26;98873.63;;;14.25
78905;BMP280;68291;49.602;8.722;2023-04-24T11:35:39;98867.00;;;14.21
78905;BMP280;68291;49.602;8.722;2023-04-24T11:38:24;98873.84;;;14.22
78905;BMP280;68291;49.602;8.722;2023-04-24T11:41:14;98868.94;;;14.30
78905;BMP280;68291;49.602;8.722;2023-04-24T11:43:45;98885.41;;;14.41
78905;BMP280;68291;49.602;8.722;2023-04-24T11:46:35;98870.75;;;14.53
78905;BMP280;68291;49.602;8.722;2023-04-24T11:49:07;98879.31;;;14.66
78905;BMP280;68291;49.602;8.722;2023-04-24T11:52:07;98875.00;;;14.77
78905;BMP280;68291;49.602;8.722;2023-04-24T11:54:49;98875.28;;;14.85
78905;BMP280;68291;49.602;8.722;2023-04-24T11:57:35;98874.00;;;14.90
78905;BMP280;68291;49.602;8.722;2023-04-24T12:00:07;98869.81;;;15.00
78905;BMP280;68291;49.602;8.722;2023-04-24T12:02:40;98874.22;;;15.10
78905;BMP280;68291;49.602;8.722;2023-04-24T12:05:27;98872.47;;;15.11
78905;BMP280;68291;49.602;8.722;2023-04-24T12:08:02;98866.59;;;15.20
78905;BMP280;68291;49.602;8.722;2023-04-24T12:10:54;98872.09;;;15.39
78905;BMP280;68291;49.602;8.722;2023-04-24T12:13:51;98871.91;;;15.63
78905;BMP280;68291;49.602;8.722;2023-04-24T12:16:22;98872.41;;;15.79
78905;BMP280;68291;49.602;8.722;2023-04-24T12:19:11;98859.06;;;15.83
78905;BMP280;68291;49.602;8.722;2023-04-24T12:22:06;98875.38;;;15.96
78905;BMP280;68291;49.602;8.722;2023-04-24T12:25:05;98874.06;;;16.02
78905;BMP280;68291;49.602;8.722;2023-04-24T12:27:55;98878.88;;;16.06
78905;BMP280;68291;49.602;8.722;2023-04-24T12:30:32;98862.59;;;16.04
78905;BMP280;68291;49.602;8.722;2023-04-24T12:33:06;98861.06;;;16.02
78905;BMP280;68291;49.602;8.722;2023-04-24T12:35:53;98879.97;;;15.93
78905;BMP280;68291;49.602;8.722;2023-04-24T12:38:33;98878.06;;;15.84
78905;BMP280;68291;49.602;8.722;2023-04-24T12:41:37;98873.94;;;15.71
78905;BMP280;68291;49.602;8.722;2023-04-24T12:44:16;98880.88;;;15.59
78905;BMP280;68291;49.602;8.722;2023-04-24T12:46:57;98883.66;;;15.45
78905;BMP280;68291;49.602;8.722;2023-04-24T12:49:42;98890.59;;;15.34
78905;BMP280;68291;49.602;8.722;2023-04-24T12:52:16;98903.38;;;15.14
78905;BMP280;68291;49.602;8.722;2023-04-24T12:55:03;98897.56;;;15.10
78905;BMP280;68291;49.602;8.722;2023-04-24T12:57:47;98898.19;;;15.14
78905;BMP280;68291;49.602;8.722;2023-04-24T13:00:27;98902.19;;;15.18
78905;BMP280;68291;49.602;8.722;2023-04-24T13:03:07;98897.00;;;15.18
78905;BMP280;68291;49.602;8.722;2023-04-24T13:05:48;98898.72;;;15.30
78905;BMP280;68291;49.602;8.722;2023-04-24T13:08:29;98897.78;;;15.41
78905;BMP280;68291;49.602;8.722;2023-04-24T13:11:12;98897.03;;;15.63
78905;BMP280;68291;49.602;8.722;2023-04-24T13:13:53;98894.09;;;15.89
78905;BMP280;68291;49.602;8.722;2023-04-24T13:16:28;98891.06;;;16.06
78905;BMP280;68291;49.602;8.722;2023-04-24T13:19:14;98881.72;;;16.14
78905;BMP280;68291;49.602;8.722;2023-04-24T13:21:53;98897.81;;;16.19
78905;BMP280;68291;49.602;8.722;2023-04-24T13:24:24;98891.53;;;16.10
78905;BMP280;68291;49.602;8.722;2023-04-24T13:27:16;98904.50;;;16.00
78905;BMP280;68291;49.602;8.722;2023-04-24T13:30:31;98901.41;;;15.73
78905;BMP280;68291;49.602;8.722;2023-04-24T13:33:05;98912.22;;;15.56
78905;BMP280;68291;49.602;8.722;2023-04-24T13:35:50;98906.28;;;15.43
78905;BMP280;68291;49.602;8.722;2023-04-24T13:38:32;98910.28;;;15.37
78905;BMP280;68291;49.602;8.722;2023-04-24T13:41:18;98903.59;;;15.45
78905;BMP280;68291;49.602;8.722;2023-04-24T13:43:54;98889.38;;;15.61
78905;BMP280;68291;49.602;8.722;2023-04-24T13:46:36;98899.28;;;15.67
78905;BMP280;68291;49.602;8.722;2023-04-24T13:49:23;98893.59;;;15.62
78905;BMP280;68291;49.602;8.722;2023-04-24T13:51:56;98888.78;;;15.69
78905;BMP280;68291;49.602;8.722;2023-04-24T13:54:43;98892.00;;;15.72
78905;BMP280;68291;49.602;8.722;2023-04-24T13:57:30;98902.03;;;15.76
78905;BMP280;68291;49.602;8.722;2023-04-24T14:00:16;98901.84;;;15.56
78905;BMP280;68291;49.602;8.722;2023-04-24T14:03:17;98903.16;;;15.51
78905;BMP280;68291;49.602;8.722;2023-04-24T14:06:14;98904.41;;;15.45
78905;BMP280;68291;49.602;8.722;2023-04-24T14:09:10;98935.19;;;15.39
78905;BMP280;68291;49.602;8.722;2023-04-24T14:11:55;98894.44;;;15.29
78905;BMP280;68291;49.602;8.722;2023-04-24T14:14:36;98909.63;;;15.22
78905;BMP280;68291;49.602;8.722;2023-04-24T14:17:13;98911.41;;;15.22
78905;BMP280;68291;49.602;8.722;2023-04-24T14:19:48;98908.81;;;15.22
78905;BMP280;68291;49.602;8.722;2023-04-24T14:22:37;98908.47;;;15.26
78905;BMP280;68291;49.602;8.722;2023-04-24T14:25:10;98907.56;;;15.27
78905;BMP280;68291;49.602;8.722;2023-04-24T14:27:52;98906.03;;;15.25
78905;BMP280;68291;49.602;8.722;2023-04-24T14:30:48;98910.25;;;15.26
78905;BMP280;68291;49.602;8.722;2023-04-24T14:33:32;98899.41;;;15.21
78905;BMP280;68291;49.602;8.722;2023-04-24T14:36:46;98904.59;;;15.21
78905;BMP280;68291;49.602;8.722;2023-04-24T14:39:22;98901.50;;;15.27
78905;BMP280;68291;49.602;8.722;2023-04-24T14:42:08;98900.16;;;15.34
78905;BMP280;68291;49.602;8.722;2023-04-24T14:44:39;98896.75;;;15.44
78905;BMP280;68291;49.602;8.722;2023-04-24T14:47:19;98908.91;;;15.54
78905;BMP280;68291;49.602;8.722;2023-04-24T14:50:00;98895.50;;;15.71
78905;BMP280;68291;49.602;8.722;2023-04-24T14:52:52;98903.91;;;15.85
78905;BMP280;68291;49.602;8.722;2023-04-24T14:55:36;98895.88;;;15.99
78905;BMP280;68291;49.602;8.722;2023-04-24T14:58:22;98897.91;;;16.07
78905;BMP280;68291;49.602;8.722;2023-04-24T15:01:11;98904.41;;;16.12
78905;BMP280;68291;49.602;8.722;2023-04-24T15:04:02;98904.28;;;16.13
78905;BMP280;68291;49.602;8.722;2023-04-24T15:06:55;98904.91;;;16.17
78905;BMP280;68291;49.602;8.722;2023-04-24T15:09:35;98905.75;;;16.17
78905;BMP280;68291;49.602;8.722;2023-04-24T15:12:21;98894.00;;;16.12
78905;BMP280;68291;49.602;8.722;2023-04-24T15:14:54;98894.97;;;16.11
78905;BMP280;68291;49.602;8.722;2023-04-24T15:17:47;98893.91;;;16.13
78905;BMP280;68291;49.602;8.722;2023-04-24T15:20:33;98900.41;;;16.19
78905;BMP280;68291;49.602;8.722;2023-04-24T15:23:15;98900.06;;;16.23
78905;BMP280;68291;49.602;8.722;2023-04-24T15:25:54;98880.94;;;16.24
78905;BMP280;68291;49.602;8.722;2023-04-24T15:28:31;98889.44;;;16.26
78905;BMP280;68291;49.602;8.722;2023-04-24T15:31:15;98896.63;;;16.34
78905;BMP280;68291;49.602;8.722;2023-04-24T15:34:11;98911.88;;;16.27
78905;BMP280;68291;49.602;8.722;2023-04-24T15:37:08;98920.84;;;16.23
78905;BMP280;68291;49.602;8.722;2023-04-24T15:40:06;98916.97;;;16.18
78905;BMP280;68291;49.602;8.722;2023-04-24T15:42:52;98908.31;;;16.39
78905;BMP280;68291;49.602;8.722;2023-04-24T15:45:41;98908.63;;;17.20
78905;BMP280;68291;49.602;8.722;2023-04-24T15:48:14;98897.50;;;17.99
78905;BMP280;68291;49.602;8.722;2023-04-24T15:50:58;98886.53;;;18.64